sensor_id;sensor_type;location;lat;lon;timestamp;P1;durP1;ratioP1;P2;durP2;ratioP2
78799;SDS011;68148;55.328;86.106;2023-06-14T00:01:53;5.95;;;2.00;;
78799;SDS011;68148;55.328;86.106;2023-06-14T00:04:19;6.70;;;2.17;;
78799;SDS011;68148;55.328;86.106;2023-06-14T00:06:45;4.28;;;1.70;;
78799;SDS011;68148;55.328;86.106;2023-06-14T00:09:12;2.38;;;1.58;;
78799;SDS011;68148;55.328;86.106;2023-06-14T00:11:40;2.22;;;1.38;;
78799;SDS011;68148;55.328;86.106;2023-06-14T00:14:06;2.65;;;1.20;;
78799;SDS011;68148;55.328;86.106;2023-06-14T00:16:35;3.17;;;1.13;;
78799;SDS011;68148;55.328;86.106;2023-06-14T00:19:01;5.45;;;1.50;;
78799;SDS011;68148;55.328;86.106;2023-06-14T00:21:27;2.05;;;1.15;;
78799;SDS011;68148;55.328;86.106;2023-06-14T00:23:53;2.25;;;1.52;;
78799;SDS011;68148;55.328;86.106;2023-06-14T00:26:19;3.42;;;1.40;;
78799;SDS011;68148;55.328;86.106;2023-06-14T00:28:44;2.88;;;1.45;;
78799;SDS011;68148;55.328;86.106;2023-06-14T00:31:10;5.20;;;1.48;;
78799;SDS011;68148;55.328;86.106;2023-06-14T00:33:37;4.88;;;1.40;;
78799;SDS011;68148;55.328;86.106;2023-06-14T00:36:19;6.63;;;1.27;;
78799;SDS011;68148;55.328;86.106;2023-06-14T00:38:45;4.00;;;1.30;;
78799;SDS011;68148;55.328;86.106;2023-06-14T00:41:11;3.22;;;1.58;;
78799;SDS011;68148;55.328;86.106;2023-06-14T00:43:40;3.13;;;1.83;;
78799;SDS011;68148;55.328;86.106;2023-06-14T00:46:09;4.35;;;2.03;;
78799;SDS011;68148;55.328;86.106;2023-06-14T00:48:36;2.40;;;1.63;;
78799;SDS011;68148;55.328;86.106;2023-06-14T00:51:03;2.25;;;1.38;;
78799;SDS011;68148;55.328;86.106;2023-06-14T00:53:39;2.70;;;1.67;;
78799;SDS011;68148;55.328;86.106;2023-06-14T00:57:04;3.10;;;2.05;;
78799;SDS011;68148;55.328;86.106;2023-06-14T00:59:30;2.58;;;1.85;;
78799;SDS011;68148;55.328;86.106;2023-06-14T01:01:59;2.33;;;1.75;;
78799;SDS011;68148;55.328;86.106;2023-06-14T01:04:26;3.13;;;2.00;;
78799;SDS011;68148;55.328;86.106;2023-06-14T01:15:30;3.80;;;1.65;;
78799;SDS011;68148;55.328;86.106;2023-06-14T01:17:56;2.60;;;1.35;;
78799;SDS011;68148;55.328;86.106;2023-06-14T01:20:26;2.45;;;1.92;;
78799;SDS011;68148;55.328;86.106;2023-06-14T01:23:02;2.95;;;1.80;;
78799;SDS011;68148;55.328;86.106;2023-06-14T01:25:28;3.25;;;1.88;;
78799;SDS011;68148;55.328;86.106;2023-06-14T01:27:58;3.42;;;1.88;;
78799;SDS011;68148;55.328;86.106;2023-06-14T01:30:28;3.65;;;1.85;;
78799;SDS011;68148;55.328;86.106;2023-06-14T01:32:55;2.15;;;1.75;;
78799;SDS011;68148;55.328;86.106;2023-06-14T01:35:22;2.28;;;1.70;;
78799;SDS011;68148;55.328;86.106;2023-06-14T01:37:48;2.90;;;1.25;;
78799;SDS011;68148;55.328;86.106;2023-06-14T01:40:15;2.10;;;1.45;;
78799;SDS011;68148;55.328;86.106;2023-06-14T01:42:42;4.13;;;2.03;;
78799;SDS011;68148;55.328;86.106;2023-06-14T01:45:11;2.83;;;1.80;;
78799;SDS011;68148;55.328;86.106;2023-06-14T01:47:37;2.15;;;1.33;;
78799;SDS011;68148;55.328;86.106;2023-06-14T01:50:04;4.72;;;2.53;;
78799;SDS011;68148;55.328;86.106;2023-06-14T01:52:31;5.72;;;2.13;;
78799;SDS011;68148;55.328;86.106;2023-06-14T01:54:57;3.13;;;1.77;;
78799;SDS011;68148;55.328;86.106;2023-06-14T01:57:23;7.13;;;2.20;;
78799;SDS011;68148;55.328;86.106;2023-06-14T01:59:50;2.80;;;2.00;;
78799;SDS011;68148;55.328;86.106;2023-06-14T02:02:16;5.57;;;2.42;;
78799;SDS011;68148;55.328;86.106;2023-06-14T02:04:42;2.80;;;1.85;;
78799;SDS011;68148;55.328;86.106;2023-06-14T02:07:08;2.97;;;2.13;;
78799;SDS011;68148;55.328;86.106;2023-06-14T02:09:34;9.02;;;1.90;;
78799;SDS011;68148;55.328;86.106;2023-06-14T02:12:01;2.05;;;1.10;;
78799;SDS011;68148;55.328;86.106;2023-06-14T02:14:27;3.97;;;2.08;;
78799;SDS011;68148;55.328;86.106;2023-06-14T02:16:53;2.97;;;2.28;;
78799;SDS011;68148;55.328;86.106;2023-06-14T02:19:19;3.05;;;2.05;;
78799;SDS011;68148;55.328;86.106;2023-06-14T02:21:46;4.50;;;2.42;;
78799;SDS011;68148;55.328;86.106;2023-06-14T02:24:12;3.88;;;1.42;;
78799;SDS011;68148;55.328;86.106;2023-06-14T02:26:39;2.92;;;2.13;;
78799;SDS011;68148;55.328;86.106;2023-06-14T02:29:06;5.68;;;2.05;;
78799;SDS011;68148;55.328;86.106;2023-06-14T02:31:32;3.05;;;1.13;;
78799;SDS011;68148;55.328;86.106;2023-06-14T02:33:58;3.20;;;1.73;;
78799;SDS011;68148;55.328;86.106;2023-06-14T02:36:24;2.60;;;2.10;;
78799;SDS011;68148;55.328;86.106;2023-06-14T02:38:50;4.25;;;2.42;;
78799;SDS011;68148;55.328;86.106;2023-06-14T02:41:17;4.43;;;1.85;;
78799;SDS011;68148;55.328;86.106;2023-06-14T02:43:43;3.25;;;2.13;;
78799;SDS011;68148;55.328;86.106;2023-06-14T02:46:08;6.32;;;1.48;;
78799;SDS011;68148;55.328;86.106;2023-06-14T02:48:34;1.27;;;0.85;;
78799;SDS011;68148;55.328;86.106;2023-06-14T02:51:00;2.28;;;1.33;;
78799;SDS011;68148;55.328;86.106;2023-06-14T02:53:32;7.65;;;2.10;;
78799;SDS011;68148;55.328;86.106;2023-06-14T02:55:58;1.50;;;0.93;;
78799;SDS011;68148;55.328;86.106;2023-06-14T02:58:24;2.25;;;1.38;;
78799;SDS011;68148;55.328;86.106;2023-06-14T03:00:50;2.13;;;1.50;;
78799;SDS011;68148;55.328;86.106;2023-06-14T03:03:16;2.92;;;1.50;;
78799;SDS011;68148;55.328;86.106;2023-06-14T03:05:43;2.35;;;1.77;;
78799;SDS011;68148;55.328;86.106;2023-06-14T03:08:10;2.00;;;1.13;;
78799;SDS011;68148;55.328;86.106;2023-06-14T03:10:36;2.05;;;1.45;;
78799;SDS011;68148;55.328;86.106;2023-06-14T03:13:01;2.97;;;1.92;;
78799;SDS011;68148;55.328;86.106;2023-06-14T03:15:27;1.90;;;1.30;;
78799;SDS011;68148;55.328;86.106;2023-06-14T03:17:53;2.38;;;1.75;;
78799;SDS011;68148;55.328;86.106;2023-06-14T03:20:19;2.72;;;1.30;;
78799;SDS011;68148;55.328;86.106;2023-06-14T03:22:45;3.22;;;0.98;;
78799;SDS011;68148;55.328;86.106;2023-06-14T03:25:10;2.90;;;1.05;;
78799;SDS011;68148;55.328;86.106;2023-06-14T03:27:36;3.05;;;2.13;;
78799;SDS011;68148;55.328;86.106;2023-06-14T03:30:02;3.10;;;1.85;;
78799;SDS011;68148;55.328;86.106;2023-06-14T03:32:28;1.10;;;0.80;;
78799;SDS011;68148;55.328;86.106;2023-06-14T03:34:54;5.95;;;1.60;;
78799;SDS011;68148;55.328;86.106;2023-06-14T03:37:20;2.15;;;1.40;;
78799;SDS011;68148;55.328;86.106;2023-06-14T03:39:46;2.25;;;1.70;;
78799;SDS011;68148;55.328;86.106;2023-06-14T03:42:13;2.28;;;0.88;;
78799;SDS011;68148;55.328;86.106;2023-06-14T03:44:38;2.55;;;0.98;;
78799;SDS011;68148;55.328;86.106;2023-06-14T03:47:04;1.55;;;1.08;;
78799;SDS011;68148;55.328;86.106;2023-06-14T03:49:30;12.68;;;5.10;;
78799;SDS011;68148;55.328;86.106;2023-06-14T03:51:57;5.22;;;1.30;;
78799;SDS011;68148;55.328;86.106;2023-06-14T03:54:23;1.98;;;1.10;;
78799;SDS011;68148;55.328;86.106;2023-06-14T03:56:49;2.58;;;1.50;;
78799;SDS011;68148;55.328;86.106;2023-06-14T03:59:15;3.42;;;1.30;;
78799;SDS011;68148;55.328;86.106;2023-06-14T04:01:41;1.20;;;1.00;;
78799;SDS011;68148;55.328;86.106;2023-06-14T04:04:07;2.03;;;1.40;;
78799;SDS011;68148;55.328;86.106;2023-06-14T04:06:32;1.95;;;1.42;;
78799;SDS011;68148;55.328;86.106;2023-06-14T04:08:59;3.40;;;1.25;;
78799;SDS011;68148;55.328;86.106;2023-06-14T04:11:25;3.58;;;1.67;;
78799;SDS011;68148;55.328;86.106;2023-06-14T04:13:51;2.08;;;1.30;;
78799;SDS011;68148;55.328;86.106;2023-06-14T04:16:17;1.88;;;1.77;;
78799;SDS011;68148;55.328;86.106;2023-06-14T04:18:43;2.20;;;1.80;;
78799;SDS011;68148;55.328;86.106;2023-06-14T04:21:09;2.70;;;2.00;;
78799;SDS011;68148;55.328;86.106;2023-06-14T04:23:34;1.70;;;1.25;;
78799;SDS011;68148;55.328;86.106;2023-06-14T04:26:00;2.65;;;1.70;;
78799;SDS011;68148;55.328;86.106;2023-06-14T04:28:26;5.13;;;1.90;;
78799;SDS011;68148;55.328;86.106;2023-06-14T04:30:52;3.67;;;2.90;;
78799;SDS011;68148;55.328;86.106;2023-06-14T04:33:18;2.38;;;1.67;;
78799;SDS011;68148;55.328;86.106;2023-06-14T04:35:44;3.03;;;1.75;;
78799;SDS011;68148;55.328;86.106;2023-06-14T04:38:09;3.67;;;1.30;;
78799;SDS011;68148;55.328;86.106;2023-06-14T04:40:35;2.30;;;1.45;;
78799;SDS011;68148;55.328;86.106;2023-06-14T04:43:01;7.57;;;2.40;;
78799;SDS011;68148;55.328;86.106;2023-06-14T04:45:27;7.65;;;1.25;;
78799;SDS011;68148;55.328;86.106;2023-06-14T04:47:53;1.63;;;1.30;;
78799;SDS011;68148;55.328;86.106;2023-06-14T04:50:19;1.67;;;1.17;;
78799;SDS011;68148;55.328;86.106;2023-06-14T04:52:45;1.77;;;1.25;;
78799;SDS011;68148;55.328;86.106;2023-06-14T04:55:12;5.10;;;1.70;;
78799;SDS011;68148;55.328;86.106;2023-06-14T04:57:38;3.40;;;1.70;;
78799;SDS011;68148;55.328;86.106;2023-06-14T05:00:04;2.40;;;1.92;;
78799;SDS011;68148;55.328;86.106;2023-06-14T05:02:31;4.05;;;1.85;;
78799;SDS011;68148;55.328;86.106;2023-06-14T05:04:56;1.88;;;1.40;;
78799;SDS011;68148;55.328;86.106;2023-06-14T05:07:22;5.43;;;2.00;;
78799;SDS011;68148;55.328;86.106;2023-06-14T05:09:48;2.55;;;1.73;;
78799;SDS011;68148;55.328;86.106;2023-06-14T05:12:14;5.88;;;2.38;;
78799;SDS011;68148;55.328;86.106;2023-06-14T05:14:40;3.15;;;2.05;;
78799;SDS011;68148;55.328;86.106;2023-06-14T05:17:06;3.65;;;2.35;;
78799;SDS011;68148;55.328;86.106;2023-06-14T05:19:32;6.10;;;2.45;;
78799;SDS011;68148;55.328;86.106;2023-06-14T05:21:58;3.78;;;2.10;;
78799;SDS011;68148;55.328;86.106;2023-06-14T05:24:23;5.70;;;2.80;;
78799;SDS011;68148;55.328;86.106;2023-06-14T05:26:49;5.30;;;2.55;;
78799;SDS011;68148;55.328;86.106;2023-06-14T05:29:15;4.03;;;2.78;;
78799;SDS011;68148;55.328;86.106;2023-06-14T05:31:41;5.78;;;2.67;;
78799;SDS011;68148;55.328;86.106;2023-06-14T05:34:07;3.60;;;1.95;;
78799;SDS011;68148;55.328;86.106;2023-06-14T05:36:33;8.70;;;2.42;;
78799;SDS011;68148;55.328;86.106;2023-06-14T05:38:59;6.40;;;2.80;;
78799;SDS011;68148;55.328;86.106;2023-06-14T05:41:28;3.70;;;2.22;;
78799;SDS011;68148;55.328;86.106;2023-06-14T05:43:54;4.65;;;2.47;;
78799;SDS011;68148;55.328;86.106;2023-06-14T05:48:48;3.63;;;2.30;;
78799;SDS011;68148;55.328;86.106;2023-06-14T05:51:14;4.53;;;2.03;;
78799;SDS011;68148;55.328;86.106;2023-06-14T05:53:40;4.72;;;2.65;;
78799;SDS011;68148;55.328;86.106;2023-06-14T05:56:05;5.20;;;2.42;;
78799;SDS011;68148;55.328;86.106;2023-06-14T05:58:31;5.85;;;2.25;;
78799;SDS011;68148;55.328;86.106;2023-06-14T06:00:57;5.38;;;3.13;;
78799;SDS011;68148;55.328;86.106;2023-06-14T06:03:23;5.65;;;3.30;;
78799;SDS011;68148;55.328;86.106;2023-06-14T06:05:49;4.55;;;2.83;;
78799;SDS011;68148;55.328;86.106;2023-06-14T06:08:15;3.60;;;2.33;;
78799;SDS011;68148;55.328;86.106;2023-06-14T06:10:41;2.88;;;2.40;;
78799;SDS011;68148;55.328;86.106;2023-06-14T06:13:07;4.07;;;2.30;;
78799;SDS011;68148;55.328;86.106;2023-06-14T06:15:33;4.75;;;1.98;;
78799;SDS011;68148;55.328;86.106;2023-06-14T06:17:59;2.95;;;1.90;;
78799;SDS011;68148;55.328;86.106;2023-06-14T06:20:25;2.38;;;2.00;;
78799;SDS011;68148;55.328;86.106;2023-06-14T06:22:51;4.05;;;2.95;;
78799;SDS011;68148;55.328;86.106;2023-06-14T06:25:17;6.88;;;2.42;;
78799;SDS011;68148;55.328;86.106;2023-06-14T06:27:43;4.57;;;1.45;;
78799;SDS011;68148;55.328;86.106;2023-06-14T06:30:08;6.38;;;2.60;;
78799;SDS011;68148;55.328;86.106;2023-06-14T06:32:35;4.13;;;2.42;;
78799;SDS011;68148;55.328;86.106;2023-06-14T06:35:00;3.35;;;1.95;;
78799;SDS011;68148;55.328;86.106;2023-06-14T06:37:29;5.20;;;2.72;;
78799;SDS011;68148;55.328;86.106;2023-06-14T06:39:55;3.45;;;2.13;;
78799;SDS011;68148;55.328;86.106;2023-06-14T06:42:21;5.18;;;2.70;;
78799;SDS011;68148;55.328;86.106;2023-06-14T06:44:47;3.45;;;1.63;;
78799;SDS011;68148;55.328;86.106;2023-06-14T06:47:13;4.05;;;2.10;;
78799;SDS011;68148;55.328;86.106;2023-06-14T06:49:38;3.58;;;2.08;;
78799;SDS011;68148;55.328;86.106;2023-06-14T06:52:05;6.38;;;3.30;;
78799;SDS011;68148;55.328;86.106;2023-06-14T06:54:32;2.33;;;1.48;;
78799;SDS011;68148;55.328;86.106;2023-06-14T06:56:59;10.13;;;2.30;;
78799;SDS011;68148;55.328;86.106;2023-06-14T06:59:25;2.15;;;1.60;;
78799;SDS011;68148;55.328;86.106;2023-06-14T07:01:51;2.47;;;1.80;;
78799;SDS011;68148;55.328;86.106;2023-06-14T07:04:17;4.13;;;2.10;;
78799;SDS011;68148;55.328;86.106;2023-06-14T07:06:42;2.35;;;1.20;;
78799;SDS011;68148;55.328;86.106;2023-06-14T07:09:09;9.13;;;2.25;;
78799;SDS011;68148;55.328;86.106;2023-06-14T07:11:35;5.43;;;2.35;;
78799;SDS011;68148;55.328;86.106;2023-06-14T07:14:00;4.70;;;2.10;;
78799;SDS011;68148;55.328;86.106;2023-06-14T07:16:26;5.50;;;2.40;;
78799;SDS011;68148;55.328;86.106;2023-06-14T07:18:52;2.67;;;1.75;;
78799;SDS011;68148;55.328;86.106;2023-06-14T07:21:18;5.53;;;2.00;;
78799;SDS011;68148;55.328;86.106;2023-06-14T07:23:44;4.57;;;2.25;;
78799;SDS011;68148;55.328;86.106;2023-06-14T07:26:10;2.92;;;2.20;;
78799;SDS011;68148;55.328;86.106;2023-06-14T07:28:36;10.20;;;2.45;;
78799;SDS011;68148;55.328;86.106;2023-06-14T07:31:02;4.60;;;2.17;;
78799;SDS011;68148;55.328;86.106;2023-06-14T07:33:28;5.10;;;2.22;;
78799;SDS011;68148;55.328;86.106;2023-06-14T07:35:54;2.28;;;1.95;;
78799;SDS011;68148;55.328;86.106;2023-06-14T07:38:19;2.28;;;1.98;;
78799;SDS011;68148;55.328;86.106;2023-06-14T07:40:45;7.75;;;2.83;;
78799;SDS011;68148;55.328;86.106;2023-06-14T07:43:11;9.70;;;2.30;;
78799;SDS011;68148;55.328;86.106;2023-06-14T07:45:37;4.07;;;2.40;;
78799;SDS011;68148;55.328;86.106;2023-06-14T07:48:03;2.85;;;1.80;;
78799;SDS011;68148;55.328;86.106;2023-06-14T07:50:29;6.22;;;2.55;;
78799;SDS011;68148;55.328;86.106;2023-06-14T07:52:56;2.78;;;2.08;;
78799;SDS011;68148;55.328;86.106;2023-06-14T07:55:22;3.63;;;2.55;;
78799;SDS011;68148;55.328;86.106;2023-06-14T07:57:48;2.75;;;1.92;;
78799;SDS011;68148;55.328;86.106;2023-06-14T08:00:14;11.82;;;2.47;;
78799;SDS011;68148;55.328;86.106;2023-06-14T08:02:41;4.10;;;1.95;;
78799;SDS011;68148;55.328;86.106;2023-06-14T08:05:08;3.13;;;1.90;;
78799;SDS011;68148;55.328;86.106;2023-06-14T08:07:35;3.40;;;1.98;;
78799;SDS011;68148;55.328;86.106;2023-06-14T08:10:01;2.53;;;1.85;;
78799;SDS011;68148;55.328;86.106;2023-06-14T08:12:28;3.17;;;2.00;;
78799;SDS011;68148;55.328;86.106;2023-06-14T08:14:54;4.55;;;2.20;;
78799;SDS011;68148;55.328;86.106;2023-06-14T08:17:19;2.72;;;1.48;;
78799;SDS011;68148;55.328;86.106;2023-06-14T08:19:45;3.90;;;1.92;;
78799;SDS011;68148;55.328;86.106;2023-06-14T08:22:11;3.38;;;2.35;;
78799;SDS011;68148;55.328;86.106;2023-06-14T08:24:37;4.10;;;1.88;;
78799;SDS011;68148;55.328;86.106;2023-06-14T08:27:03;5.32;;;3.00;;
78799;SDS011;68148;55.328;86.106;2023-06-14T08:29:29;4.28;;;1.80;;
78799;SDS011;68148;55.328;86.106;2023-06-14T08:31:55;2.72;;;1.50;;
78799;SDS011;68148;55.328;86.106;2023-06-14T08:34:21;3.60;;;0.95;;
78799;SDS011;68148;55.328;86.106;2023-06-14T08:36:47;5.50;;;2.10;;
78799;SDS011;68148;55.328;86.106;2023-06-14T08:39:13;3.25;;;1.67;;
78799;SDS011;68148;55.328;86.106;2023-06-14T08:41:39;5.55;;;2.97;;
78799;SDS011;68148;55.328;86.106;2023-06-14T08:44:05;6.60;;;3.15;;
78799;SDS011;68148;55.328;86.106;2023-06-14T08:46:32;5.20;;;2.58;;
78799;SDS011;68148;55.328;86.106;2023-06-14T08:48:58;5.32;;;2.17;;
78799;SDS011;68148;55.328;86.106;2023-06-14T08:51:25;6.78;;;2.13;;
78799;SDS011;68148;55.328;86.106;2023-06-14T08:53:54;3.00;;;1.92;;
78799;SDS011;68148;55.328;86.106;2023-06-14T08:56:21;5.72;;;1.63;;
78799;SDS011;68148;55.328;86.106;2023-06-14T08:58:47;3.45;;;1.20;;
78799;SDS011;68148;55.328;86.106;2023-06-14T09:01:14;1.58;;;1.05;;
78799;SDS011;68148;55.328;86.106;2023-06-14T09:03:41;3.70;;;1.80;;
78799;SDS011;68148;55.328;86.106;2023-06-14T09:06:07;2.13;;;1.38;;
78799;SDS011;68148;55.328;86.106;2023-06-14T09:08:34;2.35;;;1.45;;
78799;SDS011;68148;55.328;86.106;2023-06-14T09:11:01;5.10;;;2.15;;
78799;SDS011;68148;55.328;86.106;2023-06-14T09:13:27;1.98;;;1.42;;
78799;SDS011;68148;55.328;86.106;2023-06-14T09:15:53;2.55;;;1.65;;
78799;SDS011;68148;55.328;86.106;2023-06-14T09:18:19;2.53;;;1.60;;
78799;SDS011;68148;55.328;86.106;2023-06-14T09:20:45;3.95;;;1.48;;
78799;SDS011;68148;55.328;86.106;2023-06-14T09:23:11;4.90;;;2.45;;
78799;SDS011;68148;55.328;86.106;2023-06-14T09:25:43;4.18;;;2.05;;
78799;SDS011;68148;55.328;86.106;2023-06-14T09:28:11;2.60;;;1.55;;
78799;SDS011;68148;55.328;86.106;2023-06-14T09:30:37;5.22;;;1.92;;
78799;SDS011;68148;55.328;86.106;2023-06-14T09:33:03;2.35;;;1.48;;
78799;SDS011;68148;55.328;86.106;2023-06-14T09:35:33;3.15;;;1.77;;
78799;SDS011;68148;55.328;86.106;2023-06-14T09:37:59;2.08;;;1.50;;
78799;SDS011;68148;55.328;86.106;2023-06-14T09:40:25;1.90;;;1.40;;
78799;SDS011;68148;55.328;86.106;2023-06-14T09:42:51;3.05;;;1.85;;
78799;SDS011;68148;55.328;86.106;2023-06-14T09:45:17;6.32;;;1.90;;
78799;SDS011;68148;55.328;86.106;2023-06-14T09:47:43;5.20;;;2.22;;
78799;SDS011;68148;55.328;86.106;2023-06-14T09:50:11;3.00;;;1.90;;
78799;SDS011;68148;55.328;86.106;2023-06-14T09:52:37;6.80;;;2.20;;
78799;SDS011;68148;55.328;86.106;2023-06-14T09:55:06;10.95;;;2.17;;
78799;SDS011;68148;55.328;86.106;2023-06-14T10:00:06;3.95;;;1.90;;
78799;SDS011;68148;55.328;86.106;2023-06-14T10:02:36;3.90;;;2.22;;
78799;SDS011;68148;55.328;86.106;2023-06-14T10:05:05;4.10;;;2.28;;
78799;SDS011;68148;55.328;86.106;2023-06-14T10:07:35;5.97;;;2.78;;
78799;SDS011;68148;55.328;86.106;2023-06-14T10:10:06;7.57;;;2.67;;
78799;SDS011;68148;55.328;86.106;2023-06-14T10:12:32;4.03;;;1.75;;
78799;SDS011;68148;55.328;86.106;2023-06-14T10:14:59;4.65;;;1.55;;
78799;SDS011;68148;55.328;86.106;2023-06-14T10:20:06;6.30;;;2.20;;
78799;SDS011;68148;55.328;86.106;2023-06-14T10:22:37;4.53;;;2.30;;
78799;SDS011;68148;55.328;86.106;2023-06-14T10:25:25;3.38;;;2.05;;
78799;SDS011;68148;55.328;86.106;2023-06-14T10:27:52;4.82;;;2.20;;
78799;SDS011;68148;55.328;86.106;2023-06-14T10:30:18;4.28;;;2.20;;
78799;SDS011;68148;55.328;86.106;2023-06-14T10:33:04;5.57;;;1.73;;
78799;SDS011;68148;55.328;86.106;2023-06-14T10:35:33;3.00;;;1.75;;
78799;SDS011;68148;55.328;86.106;2023-06-14T10:38:10;5.65;;;2.70;;
78799;SDS011;68148;55.328;86.106;2023-06-14T10:40:37;2.97;;;2.10;;
78799;SDS011;68148;55.328;86.106;2023-06-14T10:43:23;2.95;;;2.17;;
78799;SDS011;68148;55.328;86.106;2023-06-14T10:48:44;4.63;;;2.17;;
78799;SDS011;68148;55.328;86.106;2023-06-14T10:51:17;4.57;;;2.22;;
78799;SDS011;68148;55.328;86.106;2023-06-14T10:53:44;7.65;;;2.90;;
78799;SDS011;68148;55.328;86.106;2023-06-14T10:56:22;5.78;;;2.72;;
78799;SDS011;68148;55.328;86.106;2023-06-14T10:58:49;3.28;;;2.00;;
78799;SDS011;68148;55.328;86.106;2023-06-14T11:01:15;3.13;;;1.95;;
78799;SDS011;68148;55.328;86.106;2023-06-14T11:03:53;4.03;;;2.15;;
78799;SDS011;68148;55.328;86.106;2023-06-14T11:06:21;4.47;;;2.28;;
78799;SDS011;68148;55.328;86.106;2023-06-14T11:11:41;5.60;;;2.38;;
78799;SDS011;68148;55.328;86.106;2023-06-14T11:16:35;2.83;;;1.30;;
78799;SDS011;68148;55.328;86.106;2023-06-14T11:19:01;5.13;;;2.65;;
78799;SDS011;68148;55.328;86.106;2023-06-14T11:21:28;3.60;;;2.33;;
78799;SDS011;68148;55.328;86.106;2023-06-14T11:23:53;3.88;;;2.45;;
78799;SDS011;68148;55.328;86.106;2023-06-14T11:28:54;3.63;;;2.13;;
78799;SDS011;68148;55.328;86.106;2023-06-14T11:31:21;7.03;;;3.60;;
78799;SDS011;68148;55.328;86.106;2023-06-14T11:33:49;6.82;;;2.67;;
78799;SDS011;68148;55.328;86.106;2023-06-14T11:36:15;7.32;;;3.22;;
78799;SDS011;68148;55.328;86.106;2023-06-14T11:38:41;4.75;;;2.40;;
78799;SDS011;68148;55.328;86.106;2023-06-14T11:41:07;8.20;;;2.90;;
78799;SDS011;68148;55.328;86.106;2023-06-14T11:43:33;6.15;;;2.28;;
78799;SDS011;68148;55.328;86.106;2023-06-14T11:45:59;5.75;;;2.95;;
78799;SDS011;68148;55.328;86.106;2023-06-14T11:48:35;5.72;;;2.78;;
78799;SDS011;68148;55.328;86.106;2023-06-14T11:51:08;6.50;;;2.80;;
78799;SDS011;68148;55.328;86.106;2023-06-14T11:53:34;8.57;;;3.28;;
78799;SDS011;68148;55.328;86.106;2023-06-14T11:56:00;5.93;;;3.10;;
78799;SDS011;68148;55.328;86.106;2023-06-14T11:58:27;5.32;;;2.33;;
78799;SDS011;68148;55.328;86.106;2023-06-14T12:00:55;3.67;;;2.17;;
78799;SDS011;68148;55.328;86.106;2023-06-14T12:03:24;12.50;;;3.10;;
78799;SDS011;68148;55.328;86.106;2023-06-14T12:06:01;6.20;;;2.63;;
78799;SDS011;68148;55.328;86.106;2023-06-14T12:08:37;4.22;;;2.13;;
78799;SDS011;68148;55.328;86.106;2023-06-14T12:11:04;5.88;;;3.42;;
78799;SDS011;68148;55.328;86.106;2023-06-14T12:13:40;6.93;;;3.00;;
78799;SDS011;68148;55.328;86.106;2023-06-14T12:16:10;3.83;;;2.70;;
78799;SDS011;68148;55.328;86.106;2023-06-14T12:18:37;8.18;;;3.13;;
78799;SDS011;68148;55.328;86.106;2023-06-14T12:21:07;4.75;;;2.70;;
78799;SDS011;68148;55.328;86.106;2023-06-14T12:23:44;5.95;;;3.90;;
78799;SDS011;68148;55.328;86.106;2023-06-14T12:26:15;6.70;;;3.60;;
78799;SDS011;68148;55.328;86.106;2023-06-14T12:28:42;5.95;;;3.03;;
78799;SDS011;68148;55.328;86.106;2023-06-14T12:31:12;8.07;;;3.72;;
78799;SDS011;68148;55.328;86.106;2023-06-14T12:33:42;4.90;;;3.00;;
78799;SDS011;68148;55.328;86.106;2023-06-14T12:36:08;6.72;;;3.72;;
78799;SDS011;68148;55.328;86.106;2023-06-14T12:38:35;6.68;;;3.58;;
78799;SDS011;68148;55.328;86.106;2023-06-14T12:41:02;11.77;;;4.13;;
78799;SDS011;68148;55.328;86.106;2023-06-14T12:43:28;5.63;;;3.83;;
78799;SDS011;68148;55.328;86.106;2023-06-14T12:45:54;11.95;;;4.88;;
78799;SDS011;68148;55.328;86.106;2023-06-14T12:48:20;4.13;;;2.55;;
78799;SDS011;68148;55.328;86.106;2023-06-14T12:50:47;12.18;;;4.03;;
78799;SDS011;68148;55.328;86.106;2023-06-14T12:53:13;7.32;;;3.22;;
78799;SDS011;68148;55.328;86.106;2023-06-14T12:55:38;4.38;;;3.30;;
78799;SDS011;68148;55.328;86.106;2023-06-14T12:58:07;5.47;;;3.05;;
78799;SDS011;68148;55.328;86.106;2023-06-14T13:00:33;5.82;;;3.53;;
78799;SDS011;68148;55.328;86.106;2023-06-14T13:02:59;6.03;;;3.53;;
78799;SDS011;68148;55.328;86.106;2023-06-14T13:05:25;5.88;;;3.00;;
78799;SDS011;68148;55.328;86.106;2023-06-14T13:07:50;5.82;;;3.22;;
78799;SDS011;68148;55.328;86.106;2023-06-14T13:10:17;7.03;;;3.10;;
78799;SDS011;68148;55.328;86.106;2023-06-14T13:12:43;4.25;;;3.15;;
78799;SDS011;68148;55.328;86.106;2023-06-14T13:15:09;12.20;;;3.70;;
78799;SDS011;68148;55.328;86.106;2023-06-14T13:17:35;6.28;;;3.58;;
78799;SDS011;68148;55.328;86.106;2023-06-14T13:20:01;6.78;;;3.60;;
78799;SDS011;68148;55.328;86.106;2023-06-14T13:22:27;12.27;;;3.50;;
78799;SDS011;68148;55.328;86.106;2023-06-14T13:24:53;10.65;;;4.18;;
78799;SDS011;68148;55.328;86.106;2023-06-14T13:27:19;11.18;;;3.58;;
78799;SDS011;68148;55.328;86.106;2023-06-14T13:29:45;2.85;;;2.10;;
78799;SDS011;68148;55.328;86.106;2023-06-14T13:32:13;5.43;;;3.30;;
78799;SDS011;68148;55.328;86.106;2023-06-14T13:34:39;13.60;;;3.10;;
78799;SDS011;68148;55.328;86.106;2023-06-14T13:37:05;6.43;;;3.13;;
78799;SDS011;68148;55.328;86.106;2023-06-14T13:39:31;7.35;;;2.83;;
78799;SDS011;68148;55.328;86.106;2023-06-14T13:41:57;4.82;;;3.50;;
78799;SDS011;68148;55.328;86.106;2023-06-14T13:44:23;5.55;;;3.35;;
78799;SDS011;68148;55.328;86.106;2023-06-14T13:46:49;7.60;;;3.33;;
78799;SDS011;68148;55.328;86.106;2023-06-14T13:49:14;9.32;;;3.90;;
78799;SDS011;68148;55.328;86.106;2023-06-14T13:51:40;4.72;;;3.28;;
78799;SDS011;68148;55.328;86.106;2023-06-14T13:54:06;7.05;;;3.03;;
78799;SDS011;68148;55.328;86.106;2023-06-14T13:56:32;9.70;;;3.65;;
78799;SDS011;68148;55.328;86.106;2023-06-14T13:58:58;5.57;;;3.38;;
78799;SDS011;68148;55.328;86.106;2023-06-14T14:01:24;7.75;;;3.38;;
78799;SDS011;68148;55.328;86.106;2023-06-14T14:03:50;7.13;;;3.20;;
78799;SDS011;68148;55.328;86.106;2023-06-14T14:06:19;5.22;;;3.42;;
78799;SDS011;68148;55.328;86.106;2023-06-14T14:08:45;6.57;;;3.80;;
78799;SDS011;68148;55.328;86.106;2023-06-14T14:11:11;9.10;;;4.40;;
78799;SDS011;68148;55.328;86.106;2023-06-14T14:13:37;7.53;;;2.92;;
78799;SDS011;68148;55.328;86.106;2023-06-14T14:16:03;7.57;;;3.80;;
78799;SDS011;68148;55.328;86.106;2023-06-14T14:18:32;12.45;;;4.10;;
78799;SDS011;68148;55.328;86.106;2023-06-14T14:21:01;7.07;;;3.60;;
78799;SDS011;68148;55.328;86.106;2023-06-14T14:23:26;11.63;;;4.32;;
78799;SDS011;68148;55.328;86.106;2023-06-14T14:25:52;18.88;;;4.50;;
78799;SDS011;68148;55.328;86.106;2023-06-14T14:28:18;10.02;;;3.78;;
78799;SDS011;68148;55.328;86.106;2023-06-14T14:30:44;11.52;;;5.03;;
78799;SDS011;68148;55.328;86.106;2023-06-14T14:33:10;13.02;;;4.63;;
78799;SDS011;68148;55.328;86.106;2023-06-14T14:35:36;10.35;;;5.20;;
78799;SDS011;68148;55.328;86.106;2023-06-14T14:38:02;14.93;;;5.80;;
78799;SDS011;68148;55.328;86.106;2023-06-14T14:40:37;12.57;;;5.82;;
78799;SDS011;68148;55.328;86.106;2023-06-14T14:43:03;12.63;;;5.95;;
78799;SDS011;68148;55.328;86.106;2023-06-14T14:45:28;17.52;;;6.18;;
78799;SDS011;68148;55.328;86.106;2023-06-14T14:47:54;11.20;;;6.70;;
78799;SDS011;68148;55.328;86.106;2023-06-14T14:50:21;17.17;;;9.77;;
78799;SDS011;68148;55.328;86.106;2023-06-14T14:52:47;23.50;;;10.38;;
78799;SDS011;68148;55.328;86.106;2023-06-14T14:55:13;19.70;;;11.32;;
78799;SDS011;68148;55.328;86.106;2023-06-14T14:57:39;24.52;;;11.65;;
78799;SDS011;68148;55.328;86.106;2023-06-14T15:00:05;21.15;;;11.20;;